KCLL/CLL METAR and TAF weather

Enter ICAO airport designator
Station Type Date Time Source
KCLL METAR 2020/07/09 07:53 UTC NOAA

KCLL 090753Z AUTO 19011KT 10SM OVC015 27/25 A2989 RMK AO2 SLP115 T02720250


Station Type Date Time Source
KCLL Decoded METAR 2020/07/09 07:53 UTC NOAA

COLLEGE STN EASTERWOOD FIELD, TX, United States (KCLL) 30-35N 096-22W 96M
Jul 09, 2020 - 03:53 AM EDT / 2020.07.09 0753 UTC
Wind: from the S (190 degrees) at 13 MPH (11 KT):0
Visibility: 10 mile(s):0
Sky conditions: overcast
Temperature: 81.0 F (27.2 C)
Dew Point: 77.0 F (25.0 C)
Relative Humidity: 87%
Pressure (altimeter): 29.89 in. Hg (1012 hPa)
ob: KCLL 090753Z AUTO 19011KT 10SM OVC015 27/25 A2989 RMK AO2 SLP115 T02720250
cycle: 8

Station Type Date Time Source
KCLL TAF 2020/07/09 07:04 UTC NOAA

TAF
AMD KCLL 090702Z 0907/1006 18009KT P6SM OVC012
FM091500 19013KT P6SM SCT035 SCT045
FM092300 17011KT P6SM SKC

Example: see airport list